Погода Добрянкана неделю

Минская область, Белоруссия

20 - 26 июля
  • 20июля
    Сегодня
    +14°
    +26°
    Практически безоблачно
    ВремяПогодаТемператураВлажностьДавлениеВетер, м/сВероятность осадков
    00:00Ясно и безоблачно+17°C72 %751 мм1.9 м/с2 %
    03:00Ясно и безоблачно+15°C74 %751 мм2.2 м/с2 %
    06:00Ясно и безоблачно+14°C80 %751 мм2.6 м/с2 %
    09:00Ясно и безоблачно+19°C70 %750 мм2.4 м/с2 %
    12:00Ясно и безоблачно+23°C56 %750 мм3.0 м/с4 %
    15:00Практически безоблачно+25°C46 %749 мм3.0 м/с7 %
    18:00Практически безоблачно+26°C41 %748 мм3.1 м/с7 %
    21:00Практически безоблачно+22°C59 %748 мм1.9 м/с2 %
  • 21июля
    Воскресенье
    +14°
    +26°
    Практически безоблачно
    ВремяПогодаТемператураВлажностьДавлениеВетер, м/сВероятность осадков
    00:00Ясно и безоблачно+18°C76 %748 мм0.8 м/с2 %
    03:00Ясно и безоблачно+15°C84 %748 мм1.5 м/с2 %
    06:00Практически безоблачно+15°C90 %748 мм1.1 м/с2 %
    09:00Ясно и безоблачно+21°C62 %748 мм0.4 м/с2 %
    12:00Практически безоблачно+24°C47 %748 мм0.4 м/с11 %
    15:00Практически безоблачно+26°C44 %748 мм0.8 м/с35 %
    18:00Практически безоблачно+25°C45 %747 мм0.7 м/с14 %
    21:00Ясно и безоблачно+23°C65 %747 мм1.4 м/с5 %
  • 22июля
    Понедельник
    +15°
    +28°
    Ясно и безоблачно
    ВремяПогодаТемператураВлажностьДавлениеВетер, м/сВероятность осадков
    00:00Ясно и безоблачно+18°C78 %747 мм2.1 м/с2 %
    03:00Ясно и безоблачно+16°C83 %748 мм2.2 м/с2 %
    06:00Ясно и безоблачно+15°C88 %748 мм1.6 м/с3 %
    09:00Ясно и безоблачно+22°C68 %748 мм1.0 м/с3 %
    12:00Практически безоблачно+25°C50 %748 мм0.9 м/с16 %
    15:00Ясно и безоблачно+27°C47 %748 мм0.7 м/с31 %
    18:00Небольшая облачность и лёгкий дождик+26°C55 %748 мм3.8 м/с52 %
    21:00Практически безоблачно+22°C70 %749 мм1.4 м/с17 %
  • 23июля
    Вторник
    +17°
    +28°
    Облачно с прояснениями
    ВремяПогодаТемператураВлажностьДавлениеВетер, м/сВероятность осадков
    00:00Ясно и безоблачно+20°C76 %749 мм1.1 м/с2 %
    03:00Ясно и безоблачно+17°C94 %749 мм1.8 м/с7 %
    06:00Ясно и безоблачно+16°C95 %749 мм1.5 м/с7 %
    09:00Ясно и безоблачно+22°C69 %749 мм1.1 м/с2 %
    12:00Практически безоблачно+25°C54 %749 мм2.4 м/с24 %
    15:00Облачно с прояснениями+27°C47 %749 мм3.1 м/с35 %
    18:00Облачно с прояснениями+26°C48 %748 мм3.4 м/с33 %
    21:00Облачно с прояснениями+23°C65 %749 мм2.0 м/с25 %
Мы используем cookies
Соглашаюсь